Time;durP1;ratioP1;P1;durP2;ratioP2;P2;SDS_P1;SDS_P2;PMS_P1;PMS_P2;Temp;Humidity;BMP_temperature;BMP_pressure;BME280_temperature;BME280_humidity;BME280_pressure;Samples;Min_cycle;Max_cycle;Signal;HPM_P1;HPM_P2
2024/02/27 00:01:48;;;;;;;59.20;4.00;;;;;;;;;;5034995;28;20544;-72
2024/02/27 00:04:16;;;;;;;59.17;3.80;;;;;;;;;;5033321;28;20456;-72
2024/02/27 00:06:43;;;;;;;57.10;3.10;;;;;;;;;;5020492;28;20832;-72
2024/02/27 00:09:14;;;;;;;56.83;3.30;;;;;;;;;;5034778;28;20483;-72
2024/02/27 00:11:43;;;;;;;59.10;3.30;;;;;;;;;;5035097;28;20868;-72
2024/02/27 00:14:10;;;;;;;55.77;2.90;;;;;;;;;;5034610;28;20455;-72
2024/02/27 00:16:37;;;;;;;62.20;4.80;;;;;;;;;;5034747;28;20467;-72
2024/02/27 00:19:04;;;;;;;61.77;5.63;;;;;;;;;;5034565;28;20450;-72
2024/02/27 00:21:33;;;;;;;61.93;6.67;;;;;;;;;;5007102;28;20461;-72
2024/02/27 00:24:00;;;;;;;58.00;3.70;;;;;;;;;;5014818;28;20448;-72
2024/02/27 00:26:27;;;;;;;56.47;3.13;;;;;;;;;;5014664;28;20474;-72
2024/02/27 00:28:55;;;;;;;56.17;2.27;;;;;;;;;;5029818;28;20534;-72
2024/02/27 00:31:22;;;;;;;55.90;2.47;;;;;;;;;;5034542;28;20751;-72
2024/02/27 00:33:49;;;;;;;55.77;2.23;;;;;;;;;;5034384;28;20454;-72
2024/02/27 00:36:16;;;;;;;55.20;2.83;;;;;;;;;;5034247;28;21003;-71
2024/02/27 00:38:44;;;;;;;55.90;2.53;;;;;;;;;;5034320;28;20458;-72
2024/02/27 00:41:11;;;;;;;56.47;2.77;;;;;;;;;;5034348;28;20461;-72
2024/02/27 00:43:38;;;;;;;55.30;2.60;;;;;;;;;;5034301;28;20462;-72
2024/02/27 00:46:05;;;;;;;55.90;2.30;;;;;;;;;;5034128;28;20470;-72
2024/02/27 00:48:34;;;;;;;55.53;2.60;;;;;;;;;;5030049;28;20842;-73
2024/02/27 00:51:01;;;;;;;56.47;2.53;;;;;;;;;;5022311;28;20454;-72
2024/02/27 00:53:28;;;;;;;56.00;2.90;;;;;;;;;;5033841;28;20449;-71
2024/02/27 00:55:57;;;;;;;56.50;3.07;;;;;;;;;;5034122;28;20499;-71
2024/02/27 00:58:24;;;;;;;55.80;2.70;;;;;;;;;;5033933;28;20447;-71
2024/02/27 01:00:51;;;;;;;57.03;2.83;;;;;;;;;;5033858;28;20446;-72
2024/02/27 01:03:18;;;;;;;55.87;2.47;;;;;;;;;;5033894;28;20477;-72
2024/02/27 01:05:46;;;;;;;56.50;2.80;;;;;;;;;;5034101;28;20466;-71
2024/02/27 01:08:13;;;;;;;57.53;2.73;;;;;;;;;;5033849;28;20541;-71
2024/02/27 01:10:40;;;;;;;56.47;2.60;;;;;;;;;;5033773;28;20487;-71
2024/02/27 01:13:08;;;;;;;56.63;2.87;;;;;;;;;;5025753;28;20538;-71
2024/02/27 01:15:35;;;;;;;55.87;2.77;;;;;;;;;;5013892;28;20547;-71
2024/02/27 01:18:03;;;;;;;56.43;2.70;;;;;;;;;;5013987;28;20552;-71
2024/02/27 01:20:30;;;;;;;57.43;2.90;;;;;;;;;;5013887;28;20440;-71
2024/02/27 01:22:58;;;;;;;56.60;2.80;;;;;;;;;;5013903;28;20448;-71
2024/02/27 01:25:25;;;;;;;56.13;2.73;;;;;;;;;;5013490;28;21023;-71
2024/02/27 01:27:52;;;;;;;56.60;2.77;;;;;;;;;;5013585;28;20453;-71
2024/02/27 01:30:20;;;;;;;56.20;2.70;;;;;;;;;;5023421;28;20512;-71
2024/02/27 01:32:47;;;;;;;56.83;2.73;;;;;;;;;;5033310;28;20931;-71
2024/02/27 01:35:18;;;;;;;56.30;3.00;;;;;;;;;;5033070;28;20529;-70
2024/02/27 01:37:45;;;;;;;57.83;3.67;;;;;;;;;;5033232;28;20449;-70
2024/02/27 01:40:12;;;;;;;57.87;2.90;;;;;;;;;;5033255;28;20535;-71
2024/02/27 01:42:39;;;;;;;57.70;3.00;;;;;;;;;;5018475;28;20452;-71
2024/02/27 01:45:08;;;;;;;57.20;3.50;;;;;;;;;;5013594;28;20451;-71
2024/02/27 01:47:36;;;;;;;57.50;3.40;;;;;;;;;;5005338;28;20949;-71
2024/02/27 01:50:04;;;;;;;56.10;2.97;;;;;;;;;;5013191;28;20487;-71
2024/02/27 01:52:31;;;;;;;55.60;2.90;;;;;;;;;;5013251;28;20452;-71
2024/02/27 01:54:58;;;;;;;57.07;3.57;;;;;;;;;;5013109;28;20536;-71
2024/02/27 01:57:25;;;;;;;56.80;3.50;;;;;;;;;;5013219;28;20472;-71
2024/02/27 01:59:53;;;;;;;57.70;3.83;;;;;;;;;;5012312;28;20571;-71
2024/02/27 02:02:20;;;;;;;59.47;3.77;;;;;;;;;;5013071;28;20453;-71
2024/02/27 02:04:49;;;;;;;57.40;4.27;;;;;;;;;;5012841;28;20486;-71
2024/02/27 02:07:16;;;;;;;57.57;3.80;;;;;;;;;;5013722;28;20475;-70
2024/02/27 02:09:43;;;;;;;58.50;5.00;;;;;;;;;;5032597;28;20491;-71
2024/02/27 02:12:10;;;;;;;57.87;4.23;;;;;;;;;;5032654;28;20450;-70
2024/02/27 02:14:38;;;;;;;58.60;4.60;;;;;;;;;;5032780;28;20450;-72
2024/02/27 02:17:05;;;;;;;58.00;4.80;;;;;;;;;;5032520;28;20997;-70
2024/02/27 02:19:32;;;;;;;58.40;5.23;;;;;;;;;;5032343;28;20448;-70
2024/02/27 02:22:00;;;;;;;59.37;5.37;;;;;;;;;;5032401;28;20537;-70
2024/02/27 02:24:29;;;;;;;57.77;4.67;;;;;;;;;;5032388;28;20482;-70
2024/02/27 02:26:57;;;;;;;58.33;4.67;;;;;;;;;;5032306;28;20481;-70
2024/02/27 02:29:24;;;;;;;58.40;5.00;;;;;;;;;;5032121;28;20829;-70
2024/02/27 02:32:23;;;;;;;58.00;4.80;;;;;;;;;;5032314;28;20533;-71
2024/02/27 02:34:50;;;;;;;59.60;5.70;;;;;;;;;;5031438;28;20764;-71
2024/02/27 02:37:18;;;;;;;61.20;5.97;;;;;;;;;;5032088;28;20474;-71
2024/02/27 02:39:45;;;;;;;58.80;5.50;;;;;;;;;;5032036;28;20443;-71
2024/02/27 02:42:12;;;;;;;58.80;5.00;;;;;;;;;;5031834;28;20456;-71
2024/02/27 02:44:39;;;;;;;59.30;5.57;;;;;;;;;;5031916;28;20824;-71
2024/02/27 02:47:06;;;;;;;59.90;5.73;;;;;;;;;;5031733;28;20473;-71
2024/02/27 02:49:34;;;;;;;61.17;6.47;;;;;;;;;;5032067;28;20487;-71
2024/02/27 02:52:01;;;;;;;64.40;6.70;;;;;;;;;;5032028;28;20857;-71
2024/02/27 02:54:29;;;;;;;62.23;7.17;;;;;;;;;;5031674;28;20474;-71
2024/02/27 02:56:56;;;;;;;61.07;5.97;;;;;;;;;;5031664;28;20472;-71
2024/02/27 02:59:25;;;;;;;61.00;6.43;;;;;;;;;;5031596;28;20454;-71
2024/02/27 03:01:52;;;;;;;60.40;6.90;;;;;;;;;;5032069;28;20455;-71
2024/02/27 03:04:19;;;;;;;64.40;6.87;;;;;;;;;;5031726;28;20455;-71
2024/02/27 03:06:45;;;;;;;61.07;7.43;;;;;;;;;;5031582;28;20470;-71
2024/02/27 03:09:12;;;;;;;60.77;7.13;;;;;;;;;;5031641;28;20447;-71
2024/02/27 03:11:41;;;;;;;61.07;7.20;;;;;;;;;;5031348;28;20451;-71
2024/02/27 03:14:08;;;;;;;60.27;6.73;;;;;;;;;;5031389;28;20446;-71
2024/02/27 03:16:35;;;;;;;62.30;7.47;;;;;;;;;;5031470;28;20550;-71
2024/02/27 03:19:02;;;;;;;61.83;7.40;;;;;;;;;;5031590;28;20533;-71
2024/02/27 03:21:31;;;;;;;60.20;6.80;;;;;;;;;;5031457;28;20450;-71
2024/02/27 03:23:59;;;;;;;63.37;7.57;;;;;;;;;;5031503;28;20451;-71
2024/02/27 03:26:26;;;;;;;64.00;7.60;;;;;;;;;;5031171;28;20467;-71
2024/02/27 03:28:54;;;;;;;60.67;7.90;;;;;;;;;;5031252;28;20819;-71
2024/02/27 03:31:21;;;;;;;61.57;6.90;;;;;;;;;;5031354;28;20491;-71
2024/02/27 03:33:48;;;;;;;62.03;7.30;;;;;;;;;;5031013;28;20468;-71
2024/02/27 03:36:15;;;;;;;63.60;8.20;;;;;;;;;;5031318;28;20471;-71
2024/02/27 03:38:43;;;;;;;62.50;8.37;;;;;;;;;;5031359;28;20446;-71
2024/02/27 03:41:12;;;;;;;61.80;7.20;;;;;;;;;;5031207;28;20442;-71
2024/02/27 03:43:39;;;;;;;61.90;6.97;;;;;;;;;;5003166;28;20443;-71
2024/02/27 03:46:08;;;;;;;63.73;8.03;;;;;;;;;;5011420;28;20472;-71
2024/02/27 03:48:35;;;;;;;61.80;7.50;;;;;;;;;;5011418;28;20475;-71
2024/02/27 03:51:02;;;;;;;61.50;7.27;;;;;;;;;;5019605;28;20499;-71
2024/02/27 03:53:29;;;;;;;61.23;7.27;;;;;;;;;;5011195;28;20466;-71
2024/02/27 03:55:56;;;;;;;63.67;7.70;;;;;;;;;;5011192;28;20471;-71
2024/02/27 03:58:23;;;;;;;61.30;7.40;;;;;;;;;;5011574;28;20453;-71
2024/02/27 04:00:51;;;;;;;62.27;8.10;;;;;;;;;;5011604;28;20812;-71
2024/02/27 04:03:19;;;;;;;62.97;7.67;;;;;;;;;;5011312;28;20457;-71
2024/02/27 04:05:47;;;;;;;62.10;7.57;;;;;;;;;;5011206;28;20474;-71
2024/02/27 04:08:14;;;;;;;61.47;7.23;;;;;;;;;;5011385;28;20457;-71
2024/02/27 04:10:42;;;;;;;62.50;7.70;;;;;;;;;;5014798;28;20485;-71
2024/02/27 04:13:09;;;;;;;62.17;7.37;;;;;;;;;;5031403;28;20446;-71
2024/02/27 04:15:36;;;;;;;64.23;8.07;;;;;;;;;;5030862;28;20466;-71
2024/02/27 04:18:04;;;;;;;62.73;7.93;;;;;;;;;;5030752;28;20943;-71
2024/02/27 04:20:32;;;;;;;62.43;7.30;;;;;;;;;;5020715;28;20447;-71
2024/02/27 04:22:59;;;;;;;61.40;8.30;;;;;;;;;;5011259;28;20799;-71
2024/02/27 04:25:26;;;;;;;65.40;9.97;;;;;;;;;;5014772;28;20891;-71
2024/02/27 04:27:53;;;;;;;69.30;10.33;;;;;;;;;;5014971;28;20846;-71
2024/02/27 04:30:20;;;;;;;66.87;9.20;;;;;;;;;;5014698;28;20490;-71
2024/02/27 04:32:47;;;;;;;65.83;9.30;;;;;;;;;;5014746;28;20443;-71
2024/02/27 04:35:15;;;;;;;62.53;8.20;;;;;;;;;;5014805;28;20464;-71
2024/02/27 04:37:44;;;;;;;62.53;7.97;;;;;;;;;;5014511;28;20474;-71
2024/02/27 04:40:12;;;;;;;63.13;8.80;;;;;;;;;;5014671;28;20458;-71
2024/02/27 04:42:39;;;;;;;69.63;8.60;;;;;;;;;;5014410;28;20446;-71
2024/02/27 04:45:06;;;;;;;66.70;8.53;;;;;;;;;;5014411;28;20446;-71
2024/02/27 04:47:34;;;;;;;62.53;8.13;;;;;;;;;;5014473;28;20499;-71
2024/02/27 04:50:01;;;;;;;63.03;9.60;;;;;;;;;;5014554;28;21004;-71
2024/02/27 04:52:28;;;;;;;64.40;8.83;;;;;;;;;;5015954;28;20463;-71
2024/02/27 04:54:56;;;;;;;63.47;9.40;;;;;;;;;;5034354;28;20526;-71
2024/02/27 04:57:23;;;;;;;62.87;9.27;;;;;;;;;;5033920;28;20472;-71
2024/02/27 04:59:50;;;;;;;62.37;8.63;;;;;;;;;;5029957;28;20454;-71
2024/02/27 05:02:17;;;;;;;65.40;9.03;;;;;;;;;;5014395;28;20454;-71
2024/02/27 05:04:44;;;;;;;66.00;9.23;;;;;;;;;;5014253;28;20531;-71
2024/02/27 05:07:12;;;;;;;63.40;8.97;;;;;;;;;;5014373;28;20498;-71
2024/02/27 05:09:39;;;;;;;64.80;9.33;;;;;;;;;;5014274;28;20446;-71
2024/02/27 05:12:08;;;;;;;64.53;9.83;;;;;;;;;;5014514;28;20459;-71
2024/02/27 05:14:35;;;;;;;72.33;10.83;;;;;;;;;;5014066;28;20455;-71
2024/02/27 05:17:02;;;;;;;67.37;11.60;;;;;;;;;;5019909;28;20485;-71
2024/02/27 05:19:29;;;;;;;68.87;12.20;;;;;;;;;;5033813;28;20464;-71
2024/02/27 05:21:57;;;;;;;64.87;10.10;;;;;;;;;;5034053;28;20526;-71
2024/02/27 05:24:25;;;;;;;63.97;9.93;;;;;;;;;;5033711;28;20457;-71
2024/02/27 05:26:52;;;;;;;66.13;10.33;;;;;;;;;;5033954;28;20560;-71
2024/02/27 05:29:20;;;;;;;65.90;9.77;;;;;;;;;;5033887;28;20542;-71
2024/02/27 05:31:47;;;;;;;66.00;9.90;;;;;;;;;;5005921;28;20908;-71
2024/02/27 05:34:14;;;;;;;66.23;11.17;;;;;;;;;;5013826;28;20451;-71
2024/02/27 05:36:42;;;;;;;66.27;10.80;;;;;;;;;;5013891;28;20468;-71
2024/02/27 05:39:09;;;;;;;64.10;9.13;;;;;;;;;;5014113;28;20984;-71
2024/02/27 05:41:36;;;;;;;66.70;9.73;;;;;;;;;;5013913;28;20814;-71
2024/02/27 05:44:04;;;;;;;65.27;10.40;;;;;;;;;;5013938;28;20451;-71
2024/02/27 05:46:32;;;;;;;63.37;9.63;;;;;;;;;;5013421;28;20998;-71
2024/02/27 05:49:00;;;;;;;64.20;10.13;;;;;;;;;;5013965;28;20474;-71
2024/02/27 05:51:27;;;;;;;66.70;10.57;;;;;;;;;;5013664;28;20914;-71
2024/02/27 05:53:54;;;;;;;66.53;10.10;;;;;;;;;;5013951;28;20454;-71
2024/02/27 05:56:21;;;;;;;66.00;10.10;;;;;;;;;;5013191;28;20479;-72
2024/02/27 05:58:48;;;;;;;68.40;10.17;;;;;;;;;;5013159;28;20455;-71
2024/02/27 06:01:16;;;;;;;65.60;10.50;;;;;;;;;;5021093;28;20448;-71
2024/02/27 06:03:44;;;;;;;65.57;10.60;;;;;;;;;;5022052;28;20443;-71
2024/02/27 06:06:12;;;;;;;66.47;11.60;;;;;;;;;;5013220;28;20549;-71
2024/02/27 06:08:39;;;;;;;68.07;10.83;;;;;;;;;;5013014;28;20447;-71
2024/02/27 06:11:06;;;;;;;66.60;11.70;;;;;;;;;;5019179;28;20482;-71
2024/02/27 06:13:33;;;;;;;70.60;12.43;;;;;;;;;;5023061;28;20455;-72
2024/02/27 06:16:01;;;;;;;67.43;10.80;;;;;;;;;;5013588;28;20567;-72
2024/02/27 06:18:28;;;;;;;65.77;10.60;;;;;;;;;;5013310;28;20457;-72
2024/02/27 06:23:42;;;;;;;67.43;11.60;;;;;;;;;;5012909;28;20819;-72
2024/02/27 06:26:13;;;;;;;67.07;12.27;;;;;;;;;;5013173;28;20634;-72
2024/02/27 06:28:41;;;;;;;69.10;12.20;;;;;;;;;;5013133;28;21007;-72
2024/02/27 06:31:10;;;;;;;66.60;11.33;;;;;;;;;;5018994;28;20490;-72
2024/02/27 06:33:37;;;;;;;66.70;11.70;;;;;;;;;;5032269;28;20869;-72
2024/02/27 06:36:06;;;;;;;68.10;11.03;;;;;;;;;;5032402;28;20473;-72
2024/02/27 06:38:33;;;;;;;70.67;12.80;;;;;;;;;;5032324;28;20545;-72
2024/02/27 06:41:00;;;;;;;69.27;12.80;;;;;;;;;;5032496;28;20819;-72
2024/02/27 06:43:27;;;;;;;68.23;12.63;;;;;;;;;;5032335;28;20541;-72
2024/02/27 06:45:54;;;;;;;70.63;13.10;;;;;;;;;;5031547;28;20471;-72
2024/02/27 06:48:21;;;;;;;67.63;12.57;;;;;;;;;;5032637;28;20832;-72
2024/02/27 06:50:51;;;;;;;69.90;12.40;;;;;;;;;;5032108;28;20995;-72
2024/02/27 06:53:19;;;;;;;68.53;12.27;;;;;;;;;;5032138;28;20452;-72
2024/02/27 06:55:48;;;;;;;69.77;13.33;;;;;;;;;;5032104;28;20572;-72
2024/02/27 06:58:15;;;;;;;71.20;13.10;;;;;;;;;;5032361;28;20459;-72
2024/02/27 07:00:42;;;;;;;70.20;14.77;;;;;;;;;;5013529;28;20450;-72
2024/02/27 07:03:10;;;;;;;74.10;14.40;;;;;;;;;;5026692;28;20451;-72
2024/02/27 07:05:37;;;;;;;68.87;13.10;;;;;;;;;;5021754;28;20522;-72
2024/02/27 07:08:04;;;;;;;70.47;13.17;;;;;;;;;;5012221;28;20455;-72
2024/02/27 07:10:33;;;;;;;71.43;13.27;;;;;;;;;;5012215;28;20447;-72
2024/02/27 07:13:00;;;;;;;69.70;13.00;;;;;;;;;;5012308;28;20455;-72
2024/02/27 07:15:27;;;;;;;71.50;14.63;;;;;;;;;;5011920;28;20450;-72
2024/02/27 07:17:54;;;;;;;68.97;13.83;;;;;;;;;;5012185;28;20452;-72
2024/02/27 07:20:21;;;;;;;70.23;13.77;;;;;;;;;;5012108;28;20450;-72
2024/02/27 07:22:48;;;;;;;72.87;14.30;;;;;;;;;;5011995;28;20941;-72
2024/02/27 07:25:16;;;;;;;71.33;11.93;;;;;;;;;;5011500;28;20494;-73
2024/02/27 07:27:47;;;;;;;73.67;14.13;;;;;;;;;;5022486;28;20450;-72
2024/02/27 07:30:15;;;;;;;68.30;13.37;;;;;;;;;;5031971;28;20450;-72
2024/02/27 07:32:42;;;;;;;69.03;13.00;;;;;;;;;;5031561;28;21003;-72
2024/02/27 07:35:09;;;;;;;69.50;14.03;;;;;;;;;;5031553;28;20458;-72
2024/02/27 07:37:37;;;;;;;70.23;14.20;;;;;;;;;;5031652;28;20457;-71
2024/02/27 07:40:05;;;;;;;73.40;14.37;;;;;;;;;;5031704;28;20462;-72
2024/02/27 07:42:32;;;;;;;68.00;13.73;;;;;;;;;;5031532;28;20459;-71
2024/02/27 07:45:01;;;;;;;69.43;13.47;;;;;;;;;;5031273;28;20516;-71
2024/02/27 07:47:28;;;;;;;71.03;14.33;;;;;;;;;;5031334;28;20787;-72
2024/02/27 07:49:57;;;;;;;70.47;13.90;;;;;;;;;;5031645;28;20447;-72
2024/02/27 07:52:26;;;;;;;71.20;14.20;;;;;;;;;;5031639;28;20485;-72
2024/02/27 07:54:55;;;;;;;67.53;13.27;;;;;;;;;;5003878;28;20448;-72
2024/02/27 07:57:24;;;;;;;68.00;13.43;;;;;;;;;;5011574;28;20468;-72
2024/02/27 07:59:52;;;;;;;70.17;13.90;;;;;;;;;;5014672;28;20469;-72
2024/02/27 08:02:21;;;;;;;69.47;14.07;;;;;;;;;;5015804;28;20448;-72
2024/02/27 08:04:48;;;;;;;69.43;12.97;;;;;;;;;;5015056;28;20960;-71
2024/02/27 08:07:15;;;;;;;70.30;15.20;;;;;;;;;;5015404;28;20495;-71
2024/02/27 08:09:43;;;;;;;71.60;14.17;;;;;;;;;;5015411;28;20452;-72
2024/02/27 08:12:10;;;;;;;69.90;13.27;;;;;;;;;;5015864;28;20486;-73
2024/02/27 08:14:37;;;;;;;69.77;14.10;;;;;;;;;;5015602;28;20482;-72
2024/02/27 08:17:05;;;;;;;67.30;12.90;;;;;;;;;;5015656;28;20555;-72
2024/02/27 08:19:34;;;;;;;69.37;13.40;;;;;;;;;;5015609;28;20457;-72
2024/02/27 08:22:04;;;;;;;68.77;13.90;;;;;;;;;;5015753;28;20447;-70
2024/02/27 08:24:31;;;;;;;68.80;13.37;;;;;;;;;;5015344;28;20511;-72
2024/02/27 08:26:58;;;;;;;69.13;12.73;;;;;;;;;;5015427;28;20981;-72
2024/02/27 08:29:26;;;;;;;68.77;13.80;;;;;;;;;;5015416;28;20449;-72
2024/02/27 08:31:53;;;;;;;72.07;13.93;;;;;;;;;;5015507;28;20498;-72
2024/02/27 08:34:20;;;;;;;66.30;11.40;;;;;;;;;;5015229;28;20452;-72
2024/02/27 08:36:49;;;;;;;68.67;13.23;;;;;;;;;;5026003;28;20479;-72
2024/02/27 08:39:16;;;;;;;68.67;13.43;;;;;;;;;;5035656;28;20457;-70
2024/02/27 08:41:44;;;;;;;70.70;14.33;;;;;;;;;;5017155;28;20469;-71
2024/02/27 08:44:11;;;;;;;68.27;13.80;;;;;;;;;;5015669;28;20462;-72
2024/02/27 08:46:39;;;;;;;67.30;12.13;;;;;;;;;;5017322;28;20470;-72
2024/02/27 08:49:06;;;;;;;73.00;12.70;;;;;;;;;;5017026;28;20800;-72
2024/02/27 08:51:33;;;;;;;69.40;13.63;;;;;;;;;;5017159;28;20483;-71
2024/02/27 08:54:02;;;;;;;70.43;12.40;;;;;;;;;;5020080;28;20459;-71
2024/02/27 08:56:29;;;;;;;67.97;13.13;;;;;;;;;;5034756;28;20992;-72
2024/02/27 08:58:56;;;;;;;68.77;12.60;;;;;;;;;;5034466;28;20495;-73
2024/02/27 09:01:23;;;;;;;68.10;12.53;;;;;;;;;;5034456;28;20441;-70
2024/02/27 09:03:50;;;;;;;73.40;13.67;;;;;;;;;;5034121;28;20452;-71
2024/02/27 09:06:17;;;;;;;69.90;13.53;;;;;;;;;;5034479;28;20479;-72
2024/02/27 09:08:45;;;;;;;67.67;12.70;;;;;;;;;;5034255;28;20832;-72
2024/02/27 09:11:13;;;;;;;69.10;13.57;;;;;;;;;;5034355;28;20570;-71
2024/02/27 09:13:40;;;;;;;68.93;12.30;;;;;;;;;;5034204;28;20446;-72
2024/02/27 09:16:08;;;;;;;69.97;14.20;;;;;;;;;;5034248;28;20979;-72
2024/02/27 09:18:37;;;;;;;67.67;13.20;;;;;;;;;;5034022;28;20443;-72
2024/02/27 09:21:05;;;;;;;70.67;13.80;;;;;;;;;;5021349;28;20500;-72
2024/02/27 09:23:32;;;;;;;69.63;13.13;;;;;;;;;;5014319;28;20449;-72
2024/02/27 09:25:59;;;;;;;65.50;12.10;;;;;;;;;;5018437;28;20469;-71
2024/02/27 09:28:28;;;;;;;70.10;13.67;;;;;;;;;;5034069;28;20445;-72
2024/02/27 09:30:55;;;;;;;69.27;13.53;;;;;;;;;;5033976;28;20451;-72
2024/02/27 09:33:22;;;;;;;68.80;13.50;;;;;;;;;;5033542;28;20494;-71
2024/02/27 09:35:49;;;;;;;68.00;13.37;;;;;;;;;;5033681;28;20467;-71
2024/02/27 09:38:16;;;;;;;67.67;12.37;;;;;;;;;;5033894;28;20452;-71
2024/02/27 09:40:43;;;;;;;69.37;14.30;;;;;;;;;;5033736;28;20458;-71
2024/02/27 09:43:14;;;;;;;72.40;13.20;;;;;;;;;;5033650;28;20447;-71
2024/02/27 09:45:42;;;;;;;68.37;14.10;;;;;;;;;;5032007;28;20470;-71
2024/02/27 09:48:10;;;;;;;69.80;14.63;;;;;;;;;;5013380;28;20465;-71
2024/02/27 09:50:37;;;;;;;70.80;14.60;;;;;;;;;;5013883;28;20483;-71
2024/02/27 09:53:04;;;;;;;71.20;13.10;;;;;;;;;;5014148;28;20496;-70
2024/02/27 09:55:31;;;;;;;69.07;14.43;;;;;;;;;;5013406;28;20472;-70
2024/02/27 09:57:59;;;;;;;67.90;13.03;;;;;;;;;;5005460;28;20457;-72
2024/02/27 10:00:26;;;;;;;69.37;14.93;;;;;;;;;;5013201;28;20631;-70
2024/02/27 10:02:55;;;;;;;67.70;13.50;;;;;;;;;;5013894;28;20455;-71
2024/02/27 10:05:23;;;;;;;69.60;13.80;;;;;;;;;;5013482;28;20475;-71
2024/02/27 10:07:51;;;;;;;71.47;15.17;;;;;;;;;;5013366;28;20503;-72
2024/02/27 10:10:18;;;;;;;73.30;15.73;;;;;;;;;;5013427;28;20453;-71
2024/02/27 10:12:46;;;;;;;73.47;15.93;;;;;;;;;;5013287;28;20566;-71
2024/02/27 10:15:13;;;;;;;74.97;14.97;;;;;;;;;;5012886;28;20464;-71
2024/02/27 10:17:43;;;;;;;68.20;14.07;;;;;;;;;;5013303;28;20449;-72
2024/02/27 10:20:11;;;;;;;70.87;15.30;;;;;;;;;;5013153;28;20457;-71
2024/02/27 10:22:39;;;;;;;71.87;14.80;;;;;;;;;;5012651;28;20444;-72
2024/02/27 10:25:07;;;;;;;73.80;15.00;;;;;;;;;;5012818;28;20454;-71
2024/02/27 10:27:35;;;;;;;71.03;15.50;;;;;;;;;;5012989;28;20462;-71
2024/02/27 10:30:03;;;;;;;69.33;15.10;;;;;;;;;;5012870;28;20964;-71
2024/02/27 10:32:32;;;;;;;71.43;15.13;;;;;;;;;;5013067;28;20496;-72
2024/02/27 10:34:59;;;;;;;73.13;15.13;;;;;;;;;;5032414;28;20449;-72
2024/02/27 10:37:31;;;;;;;71.47;15.03;;;;;;;;;;5032466;28;20474;-72
2024/02/27 10:39:59;;;;;;;72.30;16.60;;;;;;;;;;5032307;28;20510;-72
2024/02/27 10:42:27;;;;;;;70.30;14.60;;;;;;;;;;5033013;28;20495;-72
2024/02/27 10:44:55;;;;;;;69.80;14.67;;;;;;;;;;5032468;28;20460;-72
2024/02/27 10:47:22;;;;;;;69.77;14.13;;;;;;;;;;5032469;28;20979;-72
2024/02/27 10:49:50;;;;;;;69.77;14.63;;;;;;;;;;5032371;28;20460;-72
2024/02/27 10:52:18;;;;;;;69.60;14.13;;;;;;;;;;5032643;28;20860;-72
2024/02/27 10:54:47;;;;;;;74.03;16.80;;;;;;;;;;5032084;28;20451;-71
2024/02/27 10:57:14;;;;;;;69.97;13.73;;;;;;;;;;5032403;28;20499;-72
2024/02/27 10:59:43;;;;;;;69.57;15.73;;;;;;;;;;5032289;28;20453;-71
2024/02/27 11:02:15;;;;;;;72.90;15.40;;;;;;;;;;5032375;28;20448;-72
2024/02/27 11:04:43;;;;;;;76.17;13.57;;;;;;;;;;5032018;28;20464;-71
2024/02/27 11:07:12;;;;;;;71.37;13.90;;;;;;;;;;5032064;28;20468;-72
2024/02/27 11:09:39;;;;;;;71.50;15.27;;;;;;;;;;5032303;28;20452;-72
2024/02/27 11:12:09;;;;;;;69.27;14.47;;;;;;;;;;5032280;28;20491;-72
2024/02/27 11:14:37;;;;;;;74.60;15.43;;;;;;;;;;5032070;28;20532;-72
2024/02/27 11:17:05;;;;;;;68.70;14.33;;;;;;;;;;5028342;28;20469;-72
2024/02/27 11:19:33;;;;;;;68.50;13.73;;;;;;;;;;5012707;28;20457;-72
2024/02/27 11:22:00;;;;;;;72.07;16.50;;;;;;;;;;5012435;28;20442;-72
2024/02/27 11:24:28;;;;;;;69.10;13.90;;;;;;;;;;5012381;28;20534;-73
2024/02/27 11:26:55;;;;;;;73.10;15.63;;;;;;;;;;5012116;28;20474;-72
2024/02/27 11:29:23;;;;;;;70.43;15.17;;;;;;;;;;5012146;28;20451;-72
2024/02/27 11:31:50;;;;;;;72.30;16.87;;;;;;;;;;5013635;28;20453;-72
2024/02/27 11:34:23;;;;;;;68.57;15.13;;;;;;;;;;5031607;28;20456;-72
2024/02/27 11:37:05;;;;;;;72.50;15.90;;;;;;;;;;5031833;28;20832;-72
2024/02/27 11:39:33;;;;;;;68.30;15.00;;;;;;;;;;5032058;28;20456;-71
2024/02/27 11:42:00;;;;;;;70.60;14.63;;;;;;;;;;5031709;28;20434;-70
2024/02/27 11:44:29;;;;;;;67.63;14.27;;;;;;;;;;5031669;28;20449;-71
2024/02/27 11:46:56;;;;;;;71.20;15.20;;;;;;;;;;5031183;28;20469;-72
2024/02/27 11:49:38;;;;;;;68.83;14.80;;;;;;;;;;5031912;28;20448;-72
2024/02/27 11:52:05;;;;;;;67.57;14.13;;;;;;;;;;5028194;28;20513;-72
2024/02/27 11:54:33;;;;;;;74.17;16.13;;;;;;;;;;5011837;28;20453;-71
2024/02/27 11:57:01;;;;;;;69.60;14.90;;;;;;;;;;5011768;28;20876;-71
2024/02/27 11:59:31;;;;;;;70.87;15.43;;;;;;;;;;5026646;28;20446;-72
2024/02/27 12:02:03;;;;;;;69.33;14.30;;;;;;;;;;5031324;28;20495;-72
2024/02/27 12:04:30;;;;;;;72.60;15.40;;;;;;;;;;5031069;28;20482;-72
2024/02/27 12:06:58;;;;;;;71.37;14.73;;;;;;;;;;5030662;28;20848;-72
2024/02/27 12:09:26;;;;;;;70.60;14.60;;;;;;;;;;5017222;28;20446;-71
2024/02/27 12:11:53;;;;;;;67.70;13.83;;;;;;;;;;5011711;28;20450;-71
2024/02/27 12:14:20;;;;;;;72.47;14.97;;;;;;;;;;5011609;28;20513;-72
2024/02/27 12:16:49;;;;;;;70.30;15.20;;;;;;;;;;5011203;28;20481;-71
2024/02/27 12:19:16;;;;;;;70.10;15.23;;;;;;;;;;5016558;28;20457;-71
2024/02/27 12:21:43;;;;;;;71.30;15.40;;;;;;;;;;5031374;28;20457;-72
2024/02/27 12:24:11;;;;;;;71.00;16.27;;;;;;;;;;5031304;28;20452;-72
2024/02/27 12:26:38;;;;;;;72.87;17.30;;;;;;;;;;5031669;28;20830;-72
2024/02/27 12:29:05;;;;;;;72.70;16.10;;;;;;;;;;5031228;28;20460;-72
2024/02/27 12:31:33;;;;;;;73.23;16.27;;;;;;;;;;5030842;28;20957;-72
2024/02/27 12:34:01;;;;;;;72.13;17.03;;;;;;;;;;5031013;28;20485;-72
2024/02/27 12:36:29;;;;;;;72.37;16.03;;;;;;;;;;5031087;28;20481;-73
2024/02/27 12:38:56;;;;;;;74.47;17.03;;;;;;;;;;5031308;28;20818;-72
2024/02/27 12:41:24;;;;;;;70.77;15.90;;;;;;;;;;5017656;28;20447;-72
2024/02/27 12:43:52;;;;;;;72.03;16.77;;;;;;;;;;5011404;28;20458;-71
2024/02/27 12:46:20;;;;;;;72.03;16.50;;;;;;;;;;5019384;28;20481;-71
2024/02/27 12:48:48;;;;;;;70.20;14.57;;;;;;;;;;5034830;28;20447;-71
2024/02/27 12:51:16;;;;;;;71.60;15.97;;;;;;;;;;5022064;28;20537;-71
2024/02/27 12:53:44;;;;;;;70.60;16.50;;;;;;;;;;5014254;28;20493;-72
2024/02/27 12:56:12;;;;;;;74.57;16.17;;;;;;;;;;5027009;28;20469;-72
2024/02/27 12:58:39;;;;;;;71.90;15.77;;;;;;;;;;5034310;28;20551;-72
2024/02/27 13:01:07;;;;;;;72.53;15.40;;;;;;;;;;5009962;28;20449;-72
2024/02/27 13:03:36;;;;;;;72.20;16.57;;;;;;;;;;5034112;28;20930;-73
2024/02/27 13:06:04;;;;;;;72.83;16.83;;;;;;;;;;5034157;28;20473;-71
2024/02/27 13:08:33;;;;;;;71.73;17.43;;;;;;;;;;5034212;28;20446;-71
2024/02/27 13:11:00;;;;;;;70.80;15.37;;;;;;;;;;5023685;28;20455;-71
2024/02/27 13:13:32;;;;;;;72.97;16.50;;;;;;;;;;5014206;28;20581;-71
2024/02/27 13:16:02;;;;;;;69.73;16.90;;;;;;;;;;5024965;28;20465;-72
2024/02/27 13:18:30;;;;;;;69.13;15.77;;;;;;;;;;5033959;28;20452;-72
2024/02/27 13:20:57;;;;;;;72.67;16.07;;;;;;;;;;5034178;28;20528;-71
2024/02/27 13:23:24;;;;;;;76.57;16.63;;;;;;;;;;5028716;28;20470;-71
2024/02/27 13:25:52;;;;;;;71.87;16.80;;;;;;;;;;5023695;28;20505;-71
2024/02/27 13:28:20;;;;;;;72.40;17.23;;;;;;;;;;5033850;28;20446;-71
2024/02/27 13:30:47;;;;;;;74.53;17.40;;;;;;;;;;5033452;28;20450;-71
2024/02/27 13:33:14;;;;;;;75.20;18.73;;;;;;;;;;5026791;28;20497;-71
2024/02/27 13:35:43;;;;;;;72.40;16.90;;;;;;;;;;5033883;28;20493;-71
2024/02/27 13:38:10;;;;;;;71.30;16.20;;;;;;;;;;5033723;28;20537;-71
2024/02/27 13:40:37;;;;;;;71.67;15.50;;;;;;;;;;5033586;28;20445;-71
2024/02/27 13:43:05;;;;;;;71.50;16.50;;;;;;;;;;5033814;28;20950;-71
2024/02/27 13:45:33;;;;;;;73.17;16.70;;;;;;;;;;5033158;28;20469;-71
2024/02/27 13:48:00;;;;;;;72.90;16.80;;;;;;;;;;5033535;28;20483;-72
2024/02/27 13:50:27;;;;;;;70.97;16.40;;;;;;;;;;5033724;28;20508;-71
2024/02/27 13:52:54;;;;;;;75.50;17.10;;;;;;;;;;5024051;28;20493;-73
2024/02/27 13:55:21;;;;;;;71.47;15.40;;;;;;;;;;5013444;28;21018;-72
2024/02/27 13:57:48;;;;;;;72.13;16.57;;;;;;;;;;5013566;28;20452;-72
2024/02/27 14:00:18;;;;;;;70.27;14.97;;;;;;;;;;5021820;28;20461;-72
2024/02/27 14:02:46;;;;;;;71.20;16.23;;;;;;;;;;5013577;28;20496;-72
2024/02/27 14:05:13;;;;;;;72.40;15.77;;;;;;;;;;5013144;28;20456;-72
2024/02/27 14:07:40;;;;;;;72.10;15.63;;;;;;;;;;5013515;28;20450;-72
2024/02/27 14:10:08;;;;;;;72.57;16.17;;;;;;;;;;5013469;28;20966;-72
2024/02/27 14:12:35;;;;;;;73.73;16.83;;;;;;;;;;5013197;28;20459;-72
2024/02/27 14:15:02;;;;;;;71.57;17.10;;;;;;;;;;5013245;28;20442;-72
2024/02/27 14:17:30;;;;;;;72.10;15.60;;;;;;;;;;5013432;28;20504;-72
2024/02/27 14:19:58;;;;;;;74.87;15.67;;;;;;;;;;5013517;28;20446;-72
2024/02/27 14:22:27;;;;;;;76.67;17.03;;;;;;;;;;5013254;28;20453;-71
2024/02/27 14:24:55;;;;;;;73.87;15.17;;;;;;;;;;5012987;28;20953;-71
2024/02/27 14:27:22;;;;;;;68.77;14.07;;;;;;;;;;5013575;28;20474;-72